createdAt,value
2022-09-01T00:10:58.802Z,987.3
2022-09-01T00:25:28.385Z,987.4
2022-09-01T00:39:52.327Z,987.4
2022-09-01T00:54:19.580Z,987.3
2022-09-01T01:08:47.228Z,987.3
2022-09-01T01:23:15.566Z,987.3
2022-09-01T01:37:42.602Z,987.3
2022-09-01T01:52:10.956Z,987.2
2022-09-01T02:06:39.269Z,987.3
2022-09-01T02:21:04.999Z,987.3
2022-09-01T02:35:32.986Z,987.2
2022-09-01T02:49:59.909Z,987.2
2022-09-01T03:04:28.560Z,987.1
2022-09-01T03:19:02.570Z,987.2
2022-09-01T03:33:30.249Z,987.1
2022-09-01T03:47:51.993Z,987.1
2022-09-01T04:02:20.456Z,987
2022-09-01T04:16:48.499Z,987.1
2022-09-01T04:31:16.293Z,987.1
2022-09-01T04:45:40.800Z,987.1
2022-09-01T05:00:07.926Z,987.1
2022-09-01T05:14:34.620Z,987.1
2022-09-01T05:29:02.443Z,987.1
2022-09-01T05:43:29.208Z,987.1
2022-09-01T05:58:00.276Z,987.2
2022-09-01T06:12:27.869Z,987.2
2022-09-01T06:26:57.129Z,987.2
2022-09-01T06:41:24.915Z,987.3
2022-09-01T06:55:52.809Z,987.3
2022-09-01T07:10:23.563Z,987.4
2022-09-01T07:25:13.630Z,987.4
2022-09-01T07:39:52.463Z,987.4
2022-09-01T07:54:27.651Z,987.3
2022-09-01T08:08:58.537Z,987.3
2022-09-01T08:23:25.037Z,987.3
2022-09-01T08:37:54.583Z,987.2
2022-09-01T08:52:19.363Z,987.2
2022-09-01T09:06:48.325Z,987.2
2022-09-01T09:21:17.241Z,987
2022-09-01T09:35:43.003Z,987
2022-09-01T09:50:13.136Z,986.9
2022-09-01T10:04:34.178Z,986.8
2022-09-01T10:18:57.249Z,986.7
2022-09-01T10:33:27.305Z,986.6
2022-09-01T10:47:53.867Z,986.5
2022-09-01T11:02:34.629Z,986.5
2022-09-01T11:16:53.328Z,986.6
2022-09-01T11:31:16.250Z,986.5
2022-09-01T11:45:41.150Z,986.5
2022-09-01T12:00:09.246Z,986.4
2022-09-01T12:15:06.996Z,986.3
2022-09-01T12:29:15.489Z,986.1
2022-09-01T12:43:50.784Z,986
2022-09-01T12:58:16.481Z,985.9
2022-09-01T13:12:44.786Z,985.8
2022-09-01T13:27:22.489Z,985.7
2022-09-01T13:41:45.038Z,985.6
2022-09-01T13:56:11.880Z,985.5
2022-09-01T14:10:46.111Z,985.3
2022-09-01T14:25:07.374Z,985.4
2022-09-01T14:39:31.827Z,985.3
2022-09-01T14:53:58.505Z,985.2
2022-09-01T15:08:27.414Z,985.1
2022-09-01T15:22:54.959Z,985
2022-09-01T15:37:20.899Z,985
2022-09-01T15:51:47.298Z,984.9
2022-09-01T16:06:14.394Z,984.9
2022-09-01T16:20:42.254Z,984.8
2022-09-01T16:35:08.216Z,984.8
2022-09-01T16:49:40.917Z,984.7
2022-09-01T17:04:03.287Z,984.7
2022-09-01T17:18:36.893Z,984.5
2022-09-01T17:32:59.937Z,984.6
2022-09-01T17:47:32.739Z,984.6
2022-09-01T18:02:01.857Z,984.6
2022-09-01T18:16:24.839Z,984.6
2022-09-01T18:30:53.586Z,984.8
2022-09-01T18:45:18.890Z,984.9
2022-09-01T18:59:45.458Z,985
2022-09-01T19:14:12.443Z,985.1
2022-09-01T19:28:38.337Z,985.2
2022-09-01T19:43:05.101Z,985.3
2022-09-01T19:57:33.446Z,985.3
2022-09-01T20:12:00.644Z,985.4
2022-09-01T20:26:32.462Z,985.5
2022-09-01T20:41:01.015Z,985.4
2022-09-01T20:55:24.756Z,985.5
2022-09-01T21:09:52.963Z,985.6
2022-09-01T21:24:26.412Z,985.6
2022-09-01T21:38:47.470Z,985.5
2022-09-01T21:53:15.583Z,985.4
2022-09-01T22:07:40.667Z,985.3
2022-09-01T22:22:07.380Z,985.3
2022-09-01T22:36:34.712Z,985.3
2022-09-01T22:51:07.420Z,985.2
2022-09-01T23:05:36.536Z,985.1
2022-09-01T23:20:05.837Z,985.1
2022-09-01T23:34:29.737Z,985
2022-09-01T23:48:56.383Z,984.9
